Time;durP1;ratioP1;P1;durP2;ratioP2;P2;SDS_P1;SDS_P2;PMS_P1;PMS_P2;Temp;Humidity;BMP_temperature;BMP_pressure;BME280_temperature;BME280_humidity;BME280_pressure;Samples;Min_cycle;Max_cycle;Signal;HPM_P1;HPM_P2
2022/10/12 00:00:37;;;;;;;30.47;27.30;;;;;;;16.04;83.81;99355.25;5039341;27;104494;-70
2022/10/12 00:03:05;;;;;;;16.75;14.85;;;;;;;16.34;82.56;99347.28;5030436;27;103241;-70
2022/10/12 00:05:32;;;;;;;14.38;12.95;;;;;;;16.46;81.64;99350.72;5033057;27;102828;-70
2022/10/12 00:08:02;;;;;;;12.77;11.47;;;;;;;16.52;80.93;99351.06;5034026;27;103129;-70
2022/10/12 00:10:30;;;;;;;12.52;11.25;;;;;;;16.44;81.23;99353.53;5034620;27;104752;-70
2022/10/12 00:12:58;;;;;;;16.13;12.57;;;;;;;16.26;81.75;99349.78;5032167;27;104193;-70
2022/10/12 00:15:28;;;;;;;13.87;11.93;;;;;;;16.43;81.08;99346.50;5029318;27;103454;-70
2022/10/12 00:17:55;;;;;;;12.30;11.20;;;;;;;16.49;80.56;99348.66;5036720;27;102947;-70
2022/10/12 00:20:23;;;;;;;10.80;9.70;;;;;;;16.55;80.61;99349.97;5025442;27;104504;-70
2022/10/12 00:22:51;;;;;;;12.93;10.90;;;;;;;16.46;80.83;99348.91;5035910;27;103282;-70
2022/10/12 00:25:21;;;;;;;11.82;9.75;;;;;;;16.53;80.56;99346.56;5033366;27;105675;-70
2022/10/12 00:27:49;;;;;;;8.55;7.75;;;;;;;16.62;80.33;99345.78;5036849;27;104659;-70
2022/10/12 00:30:17;;;;;;;13.65;11.30;;;;;;;16.61;79.75;99344.13;5028818;27;104299;-71
2022/10/12 00:32:46;;;;;;;12.68;11.40;;;;;;;16.43;79.52;99346.50;5032882;27;103372;-70
2022/10/12 00:35:14;;;;;;;10.65;9.65;;;;;;;16.39;81.58;99355.78;5034577;27;102720;-70
2022/10/12 00:37:42;;;;;;;12.70;11.40;;;;;;;16.20;82.01;99342.28;5035755;27;103014;-70
2022/10/12 00:40:11;;;;;;;10.50;9.47;;;;;;;16.25;81.81;99337.44;5043606;27;103993;-69
2022/10/12 00:42:41;;;;;;;11.23;10.03;;;;;;;16.39;80.99;99339.78;5032859;27;104326;-70
2022/10/12 00:45:09;;;;;;;9.73;8.82;;;;;;;16.40;80.37;99333.44;5036171;27;102652;-70
2022/10/12 00:47:40;;;;;;;10.52;9.38;;;;;;;16.44;79.74;99332.22;5034435;27;103487;-70
2022/10/12 00:50:15;;;;;;;11.50;10.20;;;;;;;16.32;79.95;99335.91;5033020;27;104017;-69
2022/10/12 00:52:49;;;;;;;13.73;11.97;;;;;;;16.10;80.58;99330.75;5031015;27;104694;-70
2022/10/12 00:55:19;;;;;;;14.48;11.73;;;;;;;15.70;81.33;99335.91;5034562;27;102785;-69
2022/10/12 00:57:49;;;;;;;17.15;13.50;;;;;;;15.10;85.57;99331.13;5034422;27;103073;-70
2022/10/12 01:00:18;;;;;;;14.27;12.35;;;;;;;15.37;83.70;99336.84;5040157;27;103192;-70
2022/10/12 01:02:48;;;;;;;14.93;11.83;;;;;;;15.31;84.72;99334.69;5033315;27;104326;-70
2022/10/12 01:05:18;;;;;;;13.05;11.43;;;;;;;15.64;83.40;99336.41;5037042;27;102620;-69
2022/10/12 01:07:46;;;;;;;10.13;8.90;;;;;;;15.85;82.25;99336.44;5039511;27;103051;-69
2022/10/12 01:10:14;;;;;;;12.50;10.18;;;;;;;15.92;81.20;99334.94;5036854;27;103966;-70
2022/10/12 01:12:44;;;;;;;9.43;8.60;;;;;;;15.96;81.22;99341.72;5042227;27;103416;-70
2022/10/12 01:15:14;;;;;;;13.95;11.30;;;;;;;15.92;80.18;99345.59;5040171;27;102633;-70
2022/10/12 01:17:54;;;;;;;12.20;9.77;;;;;;;15.91;80.18;99339.44;5040159;27;103763;-70
2022/10/12 01:20:51;;;;;;;8.63;7.63;;;;;;;15.95;80.14;99342.69;5040691;27;103318;-70
2022/10/12 01:23:47;;;;;;;9.38;8.48;;;;;;;15.89;79.01;99340.53;5042401;27;103371;-69
2022/10/12 01:26:52;;;;;;;11.15;10.02;;;;;;;15.72;79.53;99333.13;5042947;27;105797;-69
2022/10/12 01:29:37;;;;;;;12.20;10.90;;;;;;;15.57;79.13;99341.41;5040390;27;103651;-69
2022/10/12 01:32:12;;;;;;;9.63;8.67;;;;;;;15.48;80.55;99336.00;5039804;27;103824;-69
2022/10/12 01:34:44;;;;;;;8.63;7.82;;;;;;;15.63;80.22;99338.22;5042070;27;103273;-70
2022/10/12 01:37:19;;;;;;;8.05;7.25;;;;;;;15.76;79.62;99337.22;5041696;27;102727;-70
2022/10/12 01:39:53;;;;;;;9.85;8.85;;;;;;;15.81;79.79;99327.00;5042044;27;103609;-69
2022/10/12 01:42:25;;;;;;;12.47;11.13;;;;;;;15.63;79.92;99334.75;5043272;27;104095;-69
2022/10/12 01:45:01;;;;;;;8.93;8.13;;;;;;;15.68;80.20;99332.53;5038178;27;103524;-70
2022/10/12 01:47:31;;;;;;;8.73;7.83;;;;;;;15.76;79.68;99326.56;5039891;27;102747;-70
2022/10/12 01:50:01;;;;;;;11.93;10.60;;;;;;;15.55;78.63;99324.69;5041011;27;104204;-69
2022/10/12 01:52:30;;;;;;;11.57;10.35;;;;;;;15.49;79.46;99329.72;5035736;27;103324;-69
2022/10/12 01:55:10;;;;;;;12.67;10.80;;;;;;;15.44;79.51;99323.84;5036800;27;103588;-70
2022/10/12 01:57:50;;;;;;;12.38;10.45;;;;;;;15.46;79.49;99322.81;5041631;27;102546;-69
2022/10/12 02:00:18;;;;;;;9.45;8.45;;;;;;;15.49;79.25;99314.59;5055786;27;103639;-70
2022/10/12 02:02:55;;;;;;;8.73;7.90;;;;;;;15.50;79.29;99318.06;5034093;27;104282;-69
2022/10/12 02:05:30;;;;;;;13.02;11.05;;;;;;;15.40;78.38;99323.28;5040431;27;103271;-69
2022/10/12 02:08:05;;;;;;;9.70;8.13;;;;;;;15.41;78.80;99319.63;5037484;27;103036;-69
2022/10/12 02:10:36;;;;;;;7.88;7.18;;;;;;;15.43;78.67;99320.38;5037758;27;104076;-70
2022/10/12 02:13:08;;;;;;;11.80;10.60;;;;;;;15.38;77.73;99319.88;5038380;27;104049;-70
2022/10/12 02:15:39;;;;;;;14.48;12.10;;;;;;;14.38;82.07;99321.81;5039983;27;103258;-69
2022/10/12 02:18:16;;;;;;;9.68;8.68;;;;;;;14.85;82.07;99324.22;5039882;27;102668;-70
2022/10/12 02:20:46;;;;;;;9.52;8.50;;;;;;;15.07;80.11;99320.72;5039817;27;102960;-70
2022/10/12 02:23:15;;;;;;;9.32;8.43;;;;;;;15.18;79.92;99323.34;5040339;27;103465;-69
2022/10/12 02:25:43;;;;;;;12.50;11.25;;;;;;;15.02;79.90;99317.56;5036132;27;103279;-69
2022/10/12 02:28:14;;;;;;;12.57;11.27;;;;;;;14.93;80.71;99323.66;5039905;27;102794;-70
2022/10/12 02:30:47;;;;;;;10.80;9.70;;;;;;;15.08;80.44;99317.06;5040317;27;102704;-69
2022/10/12 02:33:24;;;;;;;9.77;8.88;;;;;;;15.20;80.05;99324.06;5036591;27;103790;-70
2022/10/12 02:35:58;;;;;;;14.15;12.70;;;;;;;14.49;81.70;99314.72;5038062;27;103570;-70
2022/10/12 02:38:32;;;;;;;12.45;11.20;;;;;;;14.60;83.99;99315.66;5041140;27;102674;-70
2022/10/12 02:41:04;;;;;;;8.13;7.32;;;;;;;14.98;82.22;99321.44;5039636;27;103855;-70
2022/10/12 02:43:36;;;;;;;8.95;8.05;;;;;;;15.17;81.64;99321.66;5040906;27;103974;-69
2022/10/12 02:46:07;;;;;;;9.63;8.73;;;;;;;15.24;80.42;99322.00;5038244;27;103252;-70
2022/10/12 02:48:39;;;;;;;11.20;10.10;;;;;;;15.09;81.30;99313.44;5036685;27;102996;-69
2022/10/12 02:51:09;;;;;;;11.02;10.02;;;;;;;15.10;81.31;99313.31;5040016;27;104704;-69
2022/10/12 02:53:37;;;;;;;8.33;7.57;;;;;;;15.22;80.99;99307.97;5037916;27;103229;-70
2022/10/12 02:56:10;;;;;;;11.70;10.50;;;;;;;15.18;80.50;99312.72;5040608;27;103316;-70
2022/10/12 02:58:37;;;;;;;10.10;9.10;;;;;;;15.13;81.14;99314.88;5041163;27;102733;-70
2022/10/12 03:01:05;;;;;;;8.63;7.72;;;;;;;15.25;80.56;99300.56;5039448;27;104601;-69
2022/10/12 03:03:33;;;;;;;8.60;7.80;;;;;;;15.35;80.78;99308.66;5041579;27;103254;-69
2022/10/12 03:06:02;;;;;;;10.27;8.80;;;;;;;15.44;80.32;99303.41;5039093;27;104109;-69
2022/10/12 03:08:30;;;;;;;9.77;8.88;;;;;;;15.48;80.28;99310.22;5039584;27;102704;-69
2022/10/12 03:11:01;;;;;;;12.87;11.57;;;;;;;15.44;79.85;99310.53;5039328;27;104169;-70
2022/10/12 03:13:29;;;;;;;17.47;13.17;;;;;;;14.83;83.23;99317.34;5037655;27;104056;-70
2022/10/12 03:16:02;;;;;;;12.20;10.80;;;;;;;15.16;82.85;99316.47;5042171;27;103318;-71
2022/10/12 03:18:30;;;;;;;10.80;9.70;;;;;;;15.32;82.14;99316.91;5040410;27;102887;-70
2022/10/12 03:20:58;;;;;;;13.93;12.52;;;;;;;15.34;81.27;99318.47;5041924;27;103867;-70
2022/10/12 03:23:27;;;;;;;12.50;11.30;;;;;;;15.36;81.88;99310.34;5039564;27;103731;-70
2022/10/12 03:25:55;;;;;;;13.05;11.75;;;;;;;15.43;81.63;99317.72;5040150;27;103030;-70
2022/10/12 03:28:25;;;;;;;12.03;10.83;;;;;;;15.42;81.80;99324.00;5039659;27;104508;-69
2022/10/12 03:30:53;;;;;;;12.50;10.97;;;;;;;15.44;81.78;99314.06;5038955;27;103970;-70
2022/10/12 03:33:20;;;;;;;11.60;10.52;;;;;;;15.44;81.42;99319.38;5035003;27;103959;-70
2022/10/12 03:35:50;;;;;;;11.88;10.57;;;;;;;15.47;81.62;99318.31;5036919;27;103167;-70
2022/10/12 03:38:19;;;;;;;9.25;8.45;;;;;;;15.57;81.37;99311.28;5040110;27;102683;-70
2022/10/12 03:40:48;;;;;;;14.65;12.07;;;;;;;15.45;80.87;99310.44;5040503;27;103133;-70
2022/10/12 03:43:17;;;;;;;9.43;8.63;;;;;;;15.57;81.26;99314.78;5038864;27;103311;-69
2022/10/12 03:45:44;;;;;;;10.02;8.95;;;;;;;15.65;80.74;99312.31;5038805;27;104332;-69
2022/10/12 03:48:38;;;;;;;9.52;8.65;;;;;;;15.63;81.59;99316.09;5132553;27;102529;-69
2022/10/12 03:51:06;;;;;;;9.10;8.20;;;;;;;15.68;80.82;99310.38;5096614;27;102927;-69
2022/10/12 03:53:33;;;;;;;13.90;11.53;;;;;;;15.51;80.97;99307.31;5088908;27;104083;-70
2022/10/12 03:56:01;;;;;;;12.50;11.30;;;;;;;15.30;81.28;99318.84;5111707;27;103282;-71
2022/10/12 03:58:29;;;;;;;13.88;12.25;;;;;;;15.23;82.19;99315.84;5105048;27;103268;-70
2022/10/12 04:00:57;;;;;;;14.27;12.77;;;;;;;15.04;82.38;99318.31;5110301;27;104206;-70
2022/10/12 04:03:24;;;;;;;13.52;11.68;;;;;;;15.18;82.52;99322.50;5108259;27;106379;-70
2022/10/12 04:05:54;;;;;;;12.02;10.70;;;;;;;15.22;82.27;99319.44;5096460;27;104023;-70
2022/10/12 04:08:23;;;;;;;14.90;11.98;;;;;;;15.22;81.80;99315.94;5108264;27;102941;-70
2022/10/12 04:10:50;;;;;;;12.75;11.50;;;;;;;15.25;82.16;99321.00;5109459;27;102843;-70
2022/10/12 04:13:19;;;;;;;15.57;13.70;;;;;;;14.73;83.32;99322.56;5109115;27;104036;-69
2022/10/12 04:15:46;;;;;;;12.55;11.35;;;;;;;15.04;83.87;99320.97;5110097;27;103309;-68
2022/10/12 04:18:14;;;;;;;13.18;11.77;;;;;;;15.19;82.79;99314.38;5101189;27;102768;-68
2022/10/12 04:20:42;;;;;;;13.43;12.13;;;;;;;15.13;81.89;99322.84;5096024;27;104252;-68
2022/10/12 04:23:11;;;;;;;14.73;13.20;;;;;;;14.62;84.71;99319.06;5109725;27;103353;-67
2022/10/12 04:25:39;;;;;;;15.03;13.27;;;;;;;14.77;84.45;99320.50;5107584;27;103367;-67
2022/10/12 04:28:07;;;;;;;13.10;11.75;;;;;;;15.00;83.56;99324.81;5108690;27;102644;-67
2022/10/12 04:30:35;;;;;;;12.57;11.23;;;;;;;15.05;83.93;99328.81;5110929;27;103648;-67
2022/10/12 04:33:03;;;;;;;10.88;9.88;;;;;;;15.16;83.63;99319.13;5112051;27;103368;-67
2022/10/12 04:35:31;;;;;;;12.32;11.13;;;;;;;15.20;82.96;99326.72;5110521;27;103252;-67
2022/10/12 04:38:01;;;;;;;13.60;12.15;;;;;;;15.07;83.45;99331.38;5105459;27;102686;-67
2022/10/12 04:40:30;;;;;;;11.07;10.07;;;;;;;15.12;84.01;99328.31;5103746;27;102748;-67
2022/10/12 04:42:58;;;;;;;10.30;9.50;;;;;;;15.24;83.49;99328.16;5104630;27;103361;-67
2022/10/12 04:45:26;;;;;;;16.40;12.95;;;;;;;14.88;83.01;99331.13;5111643;27;103253;-67
2022/10/12 04:47:53;;;;;;;15.60;13.93;;;;;;;14.57;85.84;99332.72;5104373;27;103073;-67
2022/10/12 04:50:21;;;;;;;15.00;13.60;;;;;;;14.82;85.56;99331.63;5109696;27;103856;-67
2022/10/12 04:52:55;;;;;;;13.70;11.73;;;;;;;15.05;84.80;99338.59;5107757;27;103889;-67
2022/10/12 04:55:23;;;;;;;15.32;12.57;;;;;;;15.09;84.36;99340.91;5083363;27;103186;-67
2022/10/12 04:57:52;;;;;;;15.07;12.93;;;;;;;14.76;85.90;99342.75;5114133;27;103161;-67
2022/10/12 05:00:20;;;;;;;17.85;13.95;;;;;;;14.76;86.54;99337.44;5096700;27;104001;-67
2022/10/12 05:02:48;;;;;;;11.15;10.13;;;;;;;15.07;86.01;99331.38;5088555;27;104607;-67
2022/10/12 05:05:16;;;;;;;12.45;11.35;;;;;;;15.21;84.95;99332.91;5087902;27;103383;-68
2022/10/12 05:07:43;;;;;;;14.00;11.77;;;;;;;15.24;83.79;99333.47;5091353;27;102971;-68
2022/10/12 05:10:11;;;;;;;18.25;14.23;;;;;;;14.62;86.59;99335.03;5088425;27;102798;-67
2022/10/12 05:12:39;;;;;;;14.48;12.98;;;;;;;14.95;86.13;99335.00;5089855;27;104055;-67
2022/10/12 05:15:09;;;;;;;13.73;12.43;;;;;;;15.22;85.42;99338.09;5096245;27;103445;-68
2022/10/12 05:17:37;;;;;;;10.38;9.38;;;;;;;15.40;84.42;99341.94;5091563;27;102686;-67
2022/10/12 05:20:07;;;;;;;11.75;10.57;;;;;;;15.47;84.01;99337.81;5097489;27;103783;-67
2022/10/12 05:22:35;;;;;;;9.07;8.30;;;;;;;15.53;83.42;99329.31;5083446;27;103304;-67
2022/10/12 05:25:03;;;;;;;11.60;10.40;;;;;;;15.54;82.71;99330.16;5091738;27;103345;-68
2022/10/12 05:27:31;;;;;;;9.18;8.38;;;;;;;15.58;83.07;99329.78;5090486;27;102770;-69
2022/10/12 05:29:59;;;;;;;10.20;9.20;;;;;;;15.57;82.43;99329.91;5095075;27;103659;-69
2022/10/12 05:32:28;;;;;;;10.57;9.10;;;;;;;15.60;82.26;99330.50;5068895;27;105028;-67
2022/10/12 05:34:58;;;;;;;12.30;11.00;;;;;;;15.57;81.86;99335.25;5096814;27;103224;-66
2022/10/12 05:37:26;;;;;;;13.77;12.23;;;;;;;15.46;82.09;99338.78;5073316;27;103019;-69
2022/10/12 05:39:53;;;;;;;14.13;11.87;;;;;;;15.58;82.13;99331.59;5073767;27;102911;-66
2022/10/12 05:42:21;;;;;;;11.57;10.45;;;;;;;15.54;82.55;99331.00;5076258;27;103368;-65
2022/10/12 05:44:49;;;;;;;13.50;11.52;;;;;;;15.47;82.93;99331.63;5063964;27;103328;-64
2022/10/12 05:47:16;;;;;;;15.13;13.63;;;;;;;15.09;84.93;99334.75;5090034;27;103162;-66
2022/10/12 05:49:46;;;;;;;17.45;13.70;;;;;;;14.48;87.64;99334.28;5093650;27;102989;-66
2022/10/12 05:52:13;;;;;;;16.67;13.48;;;;;;;14.48;89.95;99336.94;5089386;27;103385;-66
2022/10/12 05:54:41;;;;;;;13.38;12.07;;;;;;;14.45;90.44;99339.00;5074525;27;104220;-68
2022/10/12 05:57:09;;;;;;;16.13;13.80;;;;;;;14.16;90.98;99343.03;5097035;27;103321;-66
2022/10/12 05:59:37;;;;;;;15.63;13.32;;;;;;;14.15;93.47;99343.97;5072041;27;103730;-65
2022/10/12 06:02:04;;;;;;;17.00;14.18;;;;;;;14.15;92.83;99347.50;5087982;27;103911;-66
2022/10/12 06:04:32;;;;;;;14.48;12.93;;;;;;;14.28;93.22;99350.91;5089187;27;104839;-66
2022/10/12 06:07:01;;;;;;;18.13;15.67;;;;;;;13.85;95.43;99347.16;5094645;27;102929;-67
2022/10/12 06:09:29;;;;;;;19.57;14.70;;;;;;;14.11;95.01;99343.41;5095582;27;102955;-66
2022/10/12 06:11:57;;;;;;;16.63;14.05;;;;;;;14.35;93.38;99353.97;5094879;27;103906;-66
2022/10/12 06:14:24;;;;;;;15.73;12.73;;;;;;;14.57;92.04;99347.84;5094616;27;104696;-67
2022/10/12 06:16:52;;;;;;;13.48;12.07;;;;;;;14.62;92.19;99343.84;5090431;27;102624;-66
2022/10/12 06:19:21;;;;;;;12.70;11.20;;;;;;;14.78;90.94;99349.66;5095736;27;102926;-66
2022/10/12 06:21:49;;;;;;;18.73;13.90;;;;;;;14.32;92.55;99352.38;5091868;27;103386;-66
2022/10/12 06:24:18;;;;;;;17.73;14.52;;;;;;;13.84;95.14;99353.44;5090862;27;103486;-67
2022/10/12 06:26:48;;;;;;;17.80;15.52;;;;;;;13.56;97.15;99353.84;5100177;27;102720;-66
2022/10/12 06:29:16;;;;;;;20.45;15.65;;;;;;;13.60;98.23;99350.81;5073713;27;103839;-66
2022/10/12 06:31:44;;;;;;;20.42;15.77;;;;;;;13.93;96.51;99353.59;5088296;27;104613;-66
2022/10/12 06:34:18;;;;;;;18.10;14.73;;;;;;;14.21;96.32;99352.34;5071407;27;103204;-66
2022/10/12 06:36:46;;;;;;;13.98;12.52;;;;;;;14.72;93.61;99357.25;5073483;27;104246;-66
2022/10/12 06:39:14;;;;;;;15.13;12.52;;;;;;;15.03;91.74;99356.50;5099149;27;104315;-66
2022/10/12 06:41:43;;;;;;;15.55;13.07;;;;;;;15.07;90.18;99363.28;5076962;27;104203;-66
2022/10/12 06:44:11;;;;;;;13.75;12.25;;;;;;;15.22;90.10;99359.38;5093167;27;103460;-65
2022/10/12 06:46:38;;;;;;;14.87;13.10;;;;;;;15.33;88.39;99364.69;5099586;27;102934;-66
2022/10/12 06:49:06;;;;;;;27.40;18.15;;;;;;;13.71;96.22;99364.16;5091850;27;103306;-66
2022/10/12 06:51:34;;;;;;;23.85;17.65;;;;;;;14.27;95.28;99357.19;5070431;27;104100;-66
2022/10/12 06:54:02;;;;;;;21.67;16.38;;;;;;;14.71;93.38;99360.91;5096144;27;103352;-66
2022/10/12 06:56:30;;;;;;;13.10;11.67;;;;;;;15.22;91.16;99362.03;5094891;27;103013;-66
2022/10/12 06:58:59;;;;;;;15.80;13.37;;;;;;;15.38;89.41;99361.66;5077139;27;103900;-66
2022/10/12 07:01:26;;;;;;;18.47;14.03;;;;;;;15.43;88.84;99365.63;5089182;27;103589;-66
2022/10/12 07:03:54;;;;;;;19.60;15.00;;;;;;;15.10;89.89;99355.06;5096097;27;103873;-66
2022/10/12 07:06:27;;;;;;;14.00;12.13;;;;;;;15.56;89.09;99363.69;5071906;27;103441;-65
2022/10/12 07:08:58;;;;;;;13.00;11.70;;;;;;;15.80;87.62;99359.97;5074343;27;103556;-65
2022/10/12 07:11:25;;;;;;;15.52;13.38;;;;;;;15.85;86.22;99355.09;5091636;27;103379;-65
2022/10/12 07:13:53;;;;;;;15.38;12.65;;;;;;;16.03;86.00;99358.88;5098229;27;103033;-66
2022/10/12 07:16:22;;;;;;;14.67;12.17;;;;;;;16.20;85.40;99355.63;5091883;27;104763;-66
2022/10/12 07:18:50;;;;;;;15.87;13.70;;;;;;;16.19;84.37;99360.13;5072082;27;103031;-66
2022/10/12 07:21:18;;;;;;;11.95;10.75;;;;;;;16.31;85.25;99363.56;5090988;27;104059;-66
2022/10/12 07:23:45;;;;;;;19.83;15.38;;;;;;;15.92;85.91;99366.91;5090165;27;104300;-66
2022/10/12 07:26:13;;;;;;;16.27;14.53;;;;;;;16.06;85.83;99371.94;5096216;27;103186;-65
2022/10/12 07:28:43;;;;;;;15.85;13.50;;;;;;;16.30;85.00;99361.88;5102351;27;103906;-66
2022/10/12 07:31:11;;;;;;;15.90;13.00;;;;;;;16.40;84.42;99361.91;5096318;27;103184;-66
2022/10/12 07:33:40;;;;;;;16.73;13.63;;;;;;;16.45;83.93;99368.56;5079663;27;104347;-66
2022/10/12 07:36:09;;;;;;;16.53;14.83;;;;;;;16.46;84.20;99361.41;5074539;27;103348;-67
2022/10/12 07:38:44;;;;;;;15.40;13.87;;;;;;;16.48;84.20;99362.97;5097085;27;102948;-66
2022/10/12 07:41:21;;;;;;;19.83;16.88;;;;;;;16.22;84.17;99359.84;5097669;27;103727;-66
2022/10/12 07:43:54;;;;;;;19.67;16.40;;;;;;;16.34;83.78;99360.63;5095457;27;103209;-65
2022/10/12 07:46:22;;;;;;;17.83;15.23;;;;;;;16.70;84.32;99365.47;5091117;27;102958;-66
2022/10/12 07:48:51;;;;;;;15.32;13.73;;;;;;;16.84;83.11;99360.78;5092932;27;102683;-66
2022/10/12 07:51:19;;;;;;;16.42;14.73;;;;;;;16.96;82.66;99352.53;5077797;27;104334;-67
2022/10/12 07:53:47;;;;;;;18.02;16.23;;;;;;;16.87;83.49;99352.53;5089440;27;103486;-67
2022/10/12 07:56:15;;;;;;;20.55;17.23;;;;;;;16.96;82.78;99354.34;5073218;27;102633;-66
2022/10/12 07:58:43;;;;;;;15.27;13.82;;;;;;;17.24;82.57;99353.59;5091612;27;102620;-66
2022/10/12 08:01:11;;;;;;;18.58;16.27;;;;;;;17.29;81.35;99356.72;5095747;27;103431;-67
2022/10/12 08:03:41;;;;;;;24.75;19.25;;;;;;;16.91;82.53;99357.44;5092288;27;103183;-66
2022/10/12 08:06:12;;;;;;;21.73;19.43;;;;;;;16.93;83.56;99360.81;5090070;27;103992;-66
2022/10/12 08:08:41;;;;;;;21.40;19.17;;;;;;;16.88;82.75;99364.88;5088732;27;104180;-66
2022/10/12 08:11:08;;;;;;;19.07;17.17;;;;;;;17.04;83.01;99357.22;5088956;27;103702;-66
2022/10/12 08:13:36;;;;;;;22.92;19.20;;;;;;;17.09;82.19;99354.97;5090917;27;103262;-66
2022/10/12 08:16:08;;;;;;;16.92;15.23;;;;;;;17.49;81.73;99358.41;5075490;27;102742;-66
2022/10/12 08:18:36;;;;;;;19.87;17.60;;;;;;;17.34;81.88;99362.50;5086766;27;104246;-66
2022/10/12 08:21:04;;;;;;;20.60;18.23;;;;;;;17.50;81.64;99359.28;5088100;27;104054;-66
2022/10/12 08:23:34;;;;;;;18.38;16.55;;;;;;;17.73;80.47;99366.94;5069129;27;103454;-66
2022/10/12 08:26:02;;;;;;;17.38;15.73;;;;;;;17.96;79.52;99368.31;5093465;27;102590;-65
2022/10/12 08:28:30;;;;;;;27.83;20.13;;;;;;;17.36;80.27;99373.88;5074274;27;104462;-65
2022/10/12 08:30:58;;;;;;;17.00;15.30;;;;;;;17.83;80.38;99366.91;5085911;27;103123;-65
2022/10/12 08:33:29;;;;;;;20.10;16.60;;;;;;;18.02;79.39;99366.91;5077977;27;104390;-65
2022/10/12 08:35:56;;;;;;;20.30;17.52;;;;;;;18.09;78.40;99362.69;5094303;27;102643;-65
2022/10/12 08:38:24;;;;;;;22.65;19.27;;;;;;;17.76;79.53;99368.47;5099470;27;103898;-65
2022/10/12 08:40:59;;;;;;;19.92;17.77;;;;;;;17.96;78.82;99368.31;5092766;27;104119;-66
2022/10/12 08:43:41;;;;;;;18.63;16.63;;;;;;;18.50;77.83;99361.53;5091293;27;103219;-65
2022/10/12 08:46:09;;;;;;;18.20;16.47;;;;;;;18.39;78.90;99364.34;5096078;27;102892;-65
2022/10/12 08:48:46;;;;;;;17.13;15.40;;;;;;;18.78;77.87;99365.13;5093431;27;104646;-65
2022/10/12 08:51:20;;;;;;;20.55;18.42;;;;;;;18.67;78.38;99363.44;5099548;27;104343;-65
2022/10/12 08:53:54;;;;;;;21.60;19.00;;;;;;;18.73;76.93;99362.03;5071712;27;104437;-65
2022/10/12 08:56:23;;;;;;;19.00;17.05;;;;;;;18.98;75.88;99351.50;5100106;27;103123;-65
2022/10/12 08:58:52;;;;;;;20.13;17.70;;;;;;;18.46;78.19;99357.44;5097837;27;103128;-65
2022/10/12 09:01:27;;;;;;;21.20;19.02;;;;;;;18.48;77.87;99347.44;5094844;27;103291;-65
2022/10/12 09:04:21;;;;;;;22.25;18.02;;;;;;;18.55;78.02;99348.56;5095272;27;103194;-65
2022/10/12 09:06:58;;;;;;;21.77;19.08;;;;;;;18.73;77.60;99345.97;5065278;27;102744;-64
2022/10/12 09:09:41;;;;;;;22.45;18.58;;;;;;;18.55;78.08;99343.22;5101335;27;102628;-65
2022/10/12 09:12:24;;;;;;;20.70;18.70;;;;;;;18.59;76.76;99343.75;5094838;27;103356;-65
2022/10/12 09:14:59;;;;;;;18.83;16.83;;;;;;;18.95;76.46;99341.06;5086533;27;103243;-65
2022/10/12 09:17:31;;;;;;;20.30;18.23;;;;;;;19.06;75.49;99348.91;5098856;27;103894;-65
2022/10/12 09:20:04;;;;;;;20.75;17.95;;;;;;;19.06;76.07;99348.91;5100474;27;103101;-64
2022/10/12 09:22:34;;;;;;;21.57;19.10;;;;;;;18.82;76.72;99339.72;5095263;27;104406;-65
2022/10/12 09:25:03;;;;;;;25.17;20.05;;;;;;;18.55;77.12;99347.72;5097277;27;103336;-65
2022/10/12 09:27:32;;;;;;;18.65;16.85;;;;;;;18.95;77.05;99345.56;5079969;27;102650;-65
2022/10/12 09:30:02;;;;;;;21.15;18.95;;;;;;;18.86;75.96;99347.31;5097445;27;104140;-64
2022/10/12 09:32:48;;;;;;;21.85;18.23;;;;;;;18.62;76.27;99349.66;5096400;27;104042;-65
2022/10/12 09:35:16;;;;;;;18.65;16.67;;;;;;;18.80;75.39;99349.75;5102674;27;104268;-64
2022/10/12 09:37:49;;;;;;;18.57;16.33;;;;;;;19.06;73.95;99358.78;5095451;27;102906;-65
2022/10/12 09:40:27;;;;;;;19.23;16.83;;;;;;;19.03;74.34;99359.91;5095978;27;103815;-65
2022/10/12 09:43:00;;;;;;;23.63;18.40;;;;;;;18.64;75.66;99358.38;5091434;27;104027;-65
2022/10/12 09:45:31;;;;;;;20.55;17.85;;;;;;;18.60;74.98;99367.72;5071927;27;103354;-66
2022/10/12 09:48:14;;;;;;;18.77;16.88;;;;;;;18.73;75.11;99365.53;5089586;27;102597;-65
2022/10/12 09:50:45;;;;;;;24.47;18.80;;;;;;;18.57;74.28;99364.47;5091981;27;103185;-65
2022/10/12 09:53:23;;;;;;;21.60;17.75;;;;;;;18.63;74.63;99370.09;5091488;27;103680;-65
2022/10/12 09:55:54;;;;;;;18.60;16.60;;;;;;;18.81;74.90;99365.66;5069123;27;103398;-65
2022/10/12 09:58:25;;;;;;;21.20;17.02;;;;;;;18.67;73.59;99366.13;5074598;27;102654;-65
2022/10/12 10:01:17;;;;;;;19.05;16.98;;;;;;;18.95;74.51;99357.13;5075421;27;104134;-66
2022/10/12 10:03:47;;;;;;;21.63;18.07;;;;;;;18.53;75.21;99355.88;5093748;27;103234;-65
2022/10/12 10:06:15;;;;;;;17.10;15.40;;;;;;;18.96;74.02;99353.47;5094544;27;103262;-66
2022/10/12 10:08:44;;;;;;;18.90;16.53;;;;;;;18.76;73.70;99353.69;5094703;27;102999;-65
2022/10/12 10:11:18;;;;;;;17.63;15.80;;;;;;;18.49;75.18;99362.53;5095929;27;102685;-66
2022/10/12 10:13:52;;;;;;;18.98;15.73;;;;;;;18.57;74.00;99362.66;5090375;27;103411;-65
2022/10/12 10:16:23;;;;;;;14.40;12.90;;;;;;;18.81;72.16;99359.44;5075051;27;103227;-65
2022/10/12 10:18:58;;;;;;;15.43;13.57;;;;;;;19.00;72.93;99354.03;5088698;27;102605;-66
2022/10/12 10:21:29;;;;;;;16.17;14.48;;;;;;;19.03;72.51;99359.09;5075107;27;103904;-65
2022/10/12 10:23:59;;;;;;;16.85;15.05;;;;;;;19.09;72.71;99358.47;5092900;27;104054;-66
2022/10/12 10:26:30;;;;;;;15.05;13.45;;;;;;;19.17;72.13;99360.44;5086317;27;103256;-65
2022/10/12 10:29:23;;;;;;;16.00;13.13;;;;;;;18.85;72.23;99355.50;5094834;27;102939;-65
2022/10/12 10:32:10;;;;;;;13.40;11.90;;;;;;;18.64;72.63;99353.03;5088487;27;104038;-65
2022/10/12 10:34:40;;;;;;;16.03;12.70;;;;;;;18.98;72.45;99356.84;5088295;27;103908;-65
2022/10/12 10:37:17;;;;;;;15.73;13.02;;;;;;;18.90;71.05;99347.88;5092524;27;103210;-66
2022/10/12 10:39:47;;;;;;;13.48;12.02;;;;;;;18.94;71.56;99355.47;5095740;27;102577;-65
2022/10/12 10:42:20;;;;;;;15.63;12.50;;;;;;;18.95;71.95;99351.78;5080897;27;103929;-66
2022/10/12 10:44:52;;;;;;;12.93;10.93;;;;;;;19.21;69.97;99349.25;5097673;27;104060;-65
2022/10/12 10:47:20;;;;;;;15.20;12.48;;;;;;;18.80;71.37;99353.28;5088560;27;103295;-65
2022/10/12 10:49:51;;;;;;;12.95;11.55;;;;;;;18.80;72.21;99357.78;5094873;27;102575;-65
2022/10/12 10:52:22;;;;;;;16.17;12.73;;;;;;;19.06;70.83;99358.78;5092262;27;105517;-65
2022/10/12 10:55:10;;;;;;;12.98;10.98;;;;;;;19.33;68.06;99366.81;5090827;27;104093;-66
2022/10/12 10:57:42;;;;;;;12.38;10.90;;;;;;;19.57;68.57;99352.88;5086552;27;103270;-65
2022/10/12 11:00:15;;;;;;;12.57;10.00;;;;;;;19.80;67.41;99348.75;5092591;27;102790;-65
2022/10/12 11:03:10;;;;;;;13.27;10.98;;;;;;;19.58;67.70;99354.56;5093255;27;102808;-65
2022/10/12 11:05:44;;;;;;;15.60;11.30;;;;;;;18.69;67.64;99348.09;5096501;27;103991;-65
2022/10/12 11:08:17;;;;;;;14.57;11.05;;;;;;;19.45;67.73;99349.56;5087367;27;103678;-65
2022/10/12 11:10:50;;;;;;;13.05;10.82;;;;;;;19.43;68.55;99350.69;5088917;27;102614;-65
2022/10/12 11:13:22;;;;;;;10.38;9.02;;;;;;;20.04;65.83;99348.13;5064465;27;104366;-66
2022/10/12 11:15:55;;;;;;;11.13;9.77;;;;;;;20.20;65.68;99341.06;5091198;27;104104;-66
2022/10/12 11:18:32;;;;;;;12.48;10.63;;;;;;;19.29;68.89;99349.34;5071261;27;104114;-65
2022/10/12 11:21:04;;;;;;;13.45;11.55;;;;;;;19.00;69.78;99349.50;5074476;27;102724;-66
2022/10/12 11:23:41;;;;;;;11.70;10.02;;;;;;;19.56;67.35;99340.47;5087610;27;102598;-65
2022/10/12 11:26:20;;;;;;;12.38;10.52;;;;;;;19.80;67.26;99332.66;5069697;27;104114;-65
2022/10/12 11:28:48;;;;;;;12.88;10.55;;;;;;;19.47;69.15;99341.38;5086901;27;103148;-65